Řízení letového provozu České republiky  
Aktualizace dat:  01.03.2021 18:36:25 UTC English version
   METEO Zobrazení stránky:  01.03.2021 18:37:34 UTC  
vysvětlivky
METAR EDDB 011820Z 25005KT CAVOK 04/01 Q1035 NOSIG=
METAR EDDC 011820Z VRB01KT CAVOK 03/01 Q1034 NOSIG=
METAR EDDE 011820Z 03006KT 5000 BR BKN003 03/02 Q1034 TEMPO 4000 BR=
METAR EDDF 011820Z 04007KT CAVOK 09/03 Q1031 NOSIG=
METAR EDDM 011820Z VRB02KT CAVOK 06/01 Q1030 NOSIG=
METAR EDDN 011820Z 07004KT 040V110 CAVOK 10/M01 Q1031 NOSIG=
METAR EDDP 011820Z 07003KT 030V100 5000 BR BKN005 03/02 Q1035 BECMG 4000 BR SCT005=
METAR EDQM 011820Z 01004KT CAVOK 04/02 Q1032=
METAR EPBY 011830Z 23007KT 5000 BR NSC 02/01 Q1034=
METAR EPGD 011830Z 27010KT CAVOK 03/01 Q1030=
METAR EPKK 011830Z 28003KT 250V320 9999 BKN021 04/00 Q1034=
METAR EPKT 011830Z 26005KT 230V290 9000 OVC007 02/00 Q1035=
METAR EPLL 011830Z 27009KT 6000 OVC006 03/01 Q1034=
METAR EPPO 011830Z 21003KT 4500 BR NSC 01/01 Q1034=
METAR EPRZ 011830Z 28003KT 9999 OVC020 03/01 Q1034=
METAR EPWA 011830Z 27011KT 8000 OVC007 03/02 Q1034 NOSIG=
METAR EPWR 011830Z 19003KT 160V230 9999 BKN010 03/01 Q1035=
METAR LHBP 011830Z 11002KT CAVOK 04/M00 Q1034 NOSIG=
METAR LHSM 011815Z AUTO 32003KT 9000 NCD 05/00 Q1034=
METAR LKBC 011830Z AUTO VRB02KT 7000 NCD 03/01 Q1033=
METAR LKCV 011830Z 26004KT 5000 BR NSC 02/M00 Q1035 NOSIG RMK WHT WHT=
METAR LKKB 011830Z 06003KT 4000 BR NSC 01/M00 Q1034 NOSIG RMK GRN GRN=
METAR LKKU NIL
METAR LKKV 011830Z 10003KT 040V130 CAVOK 02/01 Q1033 RMK REG QNH 1030=
METAR LKLN 011830Z AUTO 04003KT 010V070 8000 NCD 04/03 Q1034=
METAR LKMT 011830Z 04004KT 9999 BKN019 03/01 Q1035 NOSIG RMK REG QNH 1030=
METAR LKNA 011830Z 11004KT CAVOK 03/M00 Q1033 NOSIG RMK BLU BLU=
METAR LKPD 011830Z VRB02KT 6000 NSC 01/00 Q1035 NOSIG RMK WHT WHT=
METAR LKPJ 011830Z AUTO 35004KT 9999 SCT013 03/00 Q1035=
METAR LKPR 011830Z VRB02KT 6000 NSC 01/01 Q1034 TEMPO 4000 BR RMK REG QNH 1030=
METAR LKTB 011830Z 05005KT 9999 SCT013 02/00 Q1034 NOSIG RMK REG QNH 1030=
METAR LKVO NIL
METAR LOWI 011820Z VRB02KT CAVOK 05/M03 Q1030 NOSIG=
METAR LOWL 011820Z AUTO 09009KT 9999 NCD 07/03 Q1032 NOSIG=
METAR LOWS 011820Z VRB02KT CAVOK 05/01 Q1030 NOSIG=
METAR LOWW 011820Z 33005KT CAVOK 04/02 Q1034 NOSIG=
METAR LZIB 011830Z 28004KT CAVOK 07/01 Q1034 NOSIG=
METAR LZKZ 011830Z VRB02KT CAVOK 03/M01 Q1034=
METAR LZMC 011800Z 34002KT CAVOK 04/01 Q1034=
METAR LZPP 011830Z 02004KT CAVOK 03/01 Q1034=
METAR LZSL 011800Z 19002KT CAVOK 05/01 Q1033=
METAR LZTT 011830Z 31004KT CAVOK M01/M02 Q1033=
METAR LZZI 011830Z VRB02KT CAVOK 02/M01 Q1034=